createdAt,value
2018-10-09T00:02:22.345Z,36.70
2018-10-09T00:04:50.478Z,36.80
2018-10-09T00:07:18.588Z,36.70
2018-10-09T00:09:46.750Z,36.80
2018-10-09T00:12:14.843Z,36.80
2018-10-09T00:14:42.937Z,36.80
2018-10-09T00:17:11.045Z,36.80
2018-10-09T00:19:39.210Z,36.80
2018-10-09T00:22:07.333Z,36.80
2018-10-09T00:24:35.421Z,36.80
2018-10-09T00:27:03.540Z,36.80
2018-10-09T00:29:31.665Z,36.80
2018-10-09T00:31:59.793Z,36.80
2018-10-09T00:34:27.913Z,36.80
2018-10-09T00:36:56.029Z,36.80
2018-10-09T00:39:24.153Z,36.80
2018-10-09T00:41:52.253Z,36.90
2018-10-09T00:44:20.365Z,36.90
2018-10-09T00:46:48.493Z,37.00
2018-10-09T00:49:16.573Z,37.00
2018-10-09T00:51:44.690Z,37.00
2018-10-09T00:54:12.794Z,37.00
2018-10-09T00:56:40.989Z,37.00
2018-10-09T00:59:09.116Z,37.00
2018-10-09T01:01:37.225Z,37.00
2018-10-09T01:04:05.414Z,37.00
2018-10-09T01:06:33.505Z,37.00
2018-10-09T01:09:01.698Z,37.00
2018-10-09T01:11:29.769Z,37.00
2018-10-09T01:13:57.881Z,37.10
2018-10-09T01:16:25.969Z,37.00
2018-10-09T01:18:54.085Z,37.00
2018-10-09T01:21:22.249Z,37.00
2018-10-09T01:23:50.364Z,37.00
2018-10-09T01:26:18.445Z,37.00
2018-10-09T01:28:46.714Z,37.00
2018-10-09T01:31:14.817Z,37.00
2018-10-09T01:33:42.906Z,37.00
2018-10-09T01:36:11.034Z,37.00
2018-10-09T01:38:39.129Z,37.00
2018-10-09T01:41:07.361Z,37.00
2018-10-09T01:43:35.459Z,37.00
2018-10-09T01:46:03.582Z,37.00
2018-10-09T01:48:31.709Z,37.00
2018-10-09T01:50:59.840Z,37.70
2018-10-09T01:53:27.945Z,37.00
2018-10-09T01:55:56.077Z,37.10
2018-10-09T01:58:24.176Z,37.10
2018-10-09T02:00:52.367Z,37.10
2018-10-09T02:03:20.462Z,37.10
2018-10-09T02:05:48.558Z,37.10
2018-10-09T02:08:16.784Z,37.10
2018-10-09T02:10:44.877Z,37.70
2018-10-09T02:13:13.049Z,37.10
2018-10-09T02:15:41.209Z,37.10
2018-10-09T02:18:09.301Z,37.20
2018-10-09T02:20:37.393Z,37.20
2018-10-09T02:23:05.510Z,37.10
2018-10-09T02:25:33.618Z,37.20
2018-10-09T02:28:01.721Z,37.20
2018-10-09T02:30:29.841Z,37.10
2018-10-09T02:32:57.937Z,37.20
2018-10-09T02:35:26.068Z,37.20
2018-10-09T02:37:54.167Z,37.20
2018-10-09T02:40:22.313Z,37.20
2018-10-09T02:42:50.408Z,37.20
2018-10-09T02:45:18.501Z,37.20
2018-10-09T02:47:46.630Z,37.20
2018-10-09T02:50:14.730Z,37.20
2018-10-09T02:52:42.855Z,37.20
2018-10-09T02:55:10.985Z,37.10
2018-10-09T02:57:39.126Z,36.90
2018-10-09T03:00:07.259Z,37.10
2018-10-09T03:02:35.402Z,37.10
2018-10-09T03:05:03.558Z,37.10
2018-10-09T03:07:31.710Z,37.10
2018-10-09T03:09:59.865Z,37.10
2018-10-09T03:12:28.001Z,37.10
2018-10-09T03:14:56.330Z,37.00
2018-10-09T03:17:24.450Z,37.10
2018-10-09T03:19:52.570Z,37.10
2018-10-09T03:22:20.705Z,37.70
2018-10-09T03:24:48.837Z,36.90
2018-10-09T03:27:17.029Z,37.00
2018-10-09T03:29:45.145Z,37.10
2018-10-09T03:32:13.289Z,37.00
2018-10-09T03:34:41.426Z,37.00
2018-10-09T03:37:09.538Z,37.00
2018-10-09T03:39:37.649Z,37.00
2018-10-09T03:42:05.813Z,37.00
2018-10-09T03:44:33.965Z,37.00
2018-10-09T03:47:02.175Z,37.00
2018-10-09T03:49:30.301Z,37.00
2018-10-09T03:51:58.418Z,37.10
2018-10-09T03:54:26.525Z,37.10
2018-10-09T03:56:54.660Z,37.10
2018-10-09T03:59:22.786Z,37.10
2018-10-09T04:01:50.900Z,37.10
2018-10-09T04:04:19.010Z,37.10
2018-10-09T04:06:47.133Z,37.10
2018-10-09T04:09:15.791Z,37.10
2018-10-09T04:11:44.226Z,37.10
2018-10-09T04:14:12.373Z,37.10
2018-10-09T04:16:40.494Z,37.10
2018-10-09T04:19:08.634Z,37.10
2018-10-09T04:21:36.758Z,37.10
2018-10-09T04:24:04.876Z,37.10
2018-10-09T04:26:33.037Z,37.20
2018-10-09T04:29:01.221Z,37.20
2018-10-09T04:31:29.346Z,37.20
2018-10-09T04:33:57.553Z,37.20
2018-10-09T04:36:25.673Z,37.20
2018-10-09T04:38:53.788Z,37.20
2018-10-09T04:41:21.981Z,37.20
2018-10-09T04:43:50.178Z,37.20
2018-10-09T04:46:18.294Z,37.20
2018-10-09T04:48:46.409Z,37.20
2018-10-09T04:51:14.562Z,37.20
2018-10-09T04:53:42.697Z,37.20
2018-10-09T04:56:10.846Z,37.20
2018-10-09T04:58:38.976Z,37.20
2018-10-09T05:01:07.234Z,37.50
2018-10-09T05:03:35.421Z,37.20
2018-10-09T05:06:03.569Z,37.90
2018-10-09T05:08:31.730Z,37.30
2018-10-09T05:10:59.869Z,37.20
2018-10-09T05:13:28.040Z,37.30
2018-10-09T05:15:56.186Z,37.30
2018-10-09T05:18:24.309Z,37.30
2018-10-09T05:20:52.438Z,37.30
2018-10-09T05:23:20.633Z,37.10
2018-10-09T05:25:48.786Z,37.30
2018-10-09T05:28:16.917Z,37.20
2018-10-09T05:30:45.063Z,37.30
2018-10-09T05:33:13.191Z,37.30
2018-10-09T05:35:41.326Z,37.30
2018-10-09T05:38:09.533Z,37.30
2018-10-09T05:40:37.718Z,37.40
2018-10-09T05:43:12.499Z,37.30
2018-10-09T05:45:41.297Z,37.30
2018-10-09T05:48:10.497Z,37.30
2018-10-09T05:50:38.637Z,37.40
2018-10-09T05:53:06.914Z,37.40
2018-10-09T05:55:35.653Z,37.40
2018-10-09T05:58:03.947Z,37.40
2018-10-09T06:00:32.057Z,37.40
2018-10-09T06:03:00.499Z,37.40
2018-10-09T06:05:28.945Z,37.40
2018-10-09T06:07:57.052Z,37.40
2018-10-09T06:10:25.193Z,37.40
2018-10-09T06:12:53.414Z,37.40
2018-10-09T06:15:21.592Z,37.40
2018-10-09T06:17:49.633Z,37.40
2018-10-09T06:20:17.753Z,37.40
2018-10-09T06:22:45.917Z,37.40
2018-10-09T06:25:14.145Z,37.40
2018-10-09T06:27:42.243Z,37.40
2018-10-09T06:30:10.362Z,37.30
2018-10-09T06:32:38.549Z,37.40
2018-10-09T06:35:06.721Z,37.40
2018-10-09T06:37:34.845Z,37.40
2018-10-09T06:40:02.996Z,37.30
2018-10-09T06:42:31.144Z,37.40
2018-10-09T06:44:59.289Z,37.40
2018-10-09T06:47:27.399Z,37.40
2018-10-09T06:49:55.579Z,37.40
2018-10-09T06:52:23.777Z,37.40
2018-10-09T06:54:51.934Z,37.40
2018-10-09T06:57:20.020Z,37.40
2018-10-09T06:59:48.158Z,37.50
2018-10-09T07:02:16.277Z,37.50
2018-10-09T07:04:44.394Z,37.50
2018-10-09T07:07:12.498Z,37.50
2018-10-09T07:09:40.646Z,37.50
2018-10-09T07:12:08.733Z,37.50
2018-10-09T07:14:36.870Z,37.50
2018-10-09T07:17:05.084Z,37.50
2018-10-09T07:19:33.115Z,37.50
2018-10-09T07:22:01.239Z,37.50
2018-10-09T07:24:29.411Z,37.60
2018-10-09T07:26:57.746Z,37.50
2018-10-09T07:29:25.846Z,37.50
2018-10-09T07:31:54.056Z,37.60
2018-10-09T07:34:22.862Z,37.60
2018-10-09T07:36:51.814Z,37.60
2018-10-09T07:39:19.985Z,37.50
2018-10-09T07:41:48.106Z,37.60
2018-10-09T07:44:16.239Z,37.60
2018-10-09T07:46:44.404Z,37.50
2018-10-09T07:49:12.526Z,37.60
2018-10-09T07:51:40.726Z,37.60
2018-10-09T07:54:08.922Z,37.60
2018-10-09T07:56:37.124Z,37.60
2018-10-09T07:59:05.355Z,37.60
2018-10-09T08:01:33.497Z,37.60
2018-10-09T08:04:01.609Z,37.60
2018-10-09T08:06:29.763Z,37.60
2018-10-09T08:08:57.883Z,38.20
2018-10-09T08:11:25.993Z,37.60
2018-10-09T08:13:54.164Z,37.70
2018-10-09T08:16:22.344Z,37.70
2018-10-09T08:18:50.382Z,37.60
2018-10-09T08:21:18.580Z,37.60
2018-10-09T08:23:46.692Z,38.30
2018-10-09T08:26:14.786Z,37.70
2018-10-09T08:28:42.941Z,37.70
2018-10-09T08:31:11.094Z,37.70
2018-10-09T08:33:39.239Z,38.40
2018-10-09T08:36:07.334Z,37.70
2018-10-09T08:38:35.446Z,37.70
2018-10-09T08:41:03.645Z,37.70
2018-10-09T08:43:31.829Z,37.80
2018-10-09T08:46:00.014Z,37.80
2018-10-09T08:48:28.126Z,38.40
2018-10-09T08:50:56.273Z,37.80
2018-10-09T08:53:24.438Z,37.90
2018-10-09T08:55:52.689Z,37.90
2018-10-09T08:58:20.900Z,37.90
2018-10-09T09:00:49.041Z,37.90
2018-10-09T09:03:17.213Z,37.90
2018-10-09T09:05:45.368Z,38.00
2018-10-09T09:08:13.527Z,38.00
2018-10-09T09:10:41.686Z,38.00
2018-10-09T09:13:09.822Z,38.00
2018-10-09T09:15:37.986Z,38.00
2018-10-09T09:18:06.254Z,38.10
2018-10-09T09:20:34.448Z,38.20
2018-10-09T09:23:02.525Z,38.20
2018-10-09T09:25:30.655Z,38.20
2018-10-09T09:27:58.758Z,38.20
2018-10-09T09:30:26.876Z,38.30
2018-10-09T09:32:55.018Z,38.30
2018-10-09T09:35:23.142Z,38.30
2018-10-09T09:37:51.249Z,38.30
2018-10-09T09:40:19.378Z,38.40
2018-10-09T09:42:47.501Z,38.40
2018-10-09T09:45:15.637Z,38.40
2018-10-09T09:47:43.739Z,38.50
2018-10-09T09:50:11.914Z,38.50
2018-10-09T09:52:40.047Z,39.10
2018-10-09T09:55:08.157Z,38.40
2018-10-09T09:57:36.310Z,38.50
2018-10-09T10:00:04.448Z,38.50
2018-10-09T10:02:32.592Z,38.50
2018-10-09T10:05:00.743Z,38.50
2018-10-09T10:07:28.922Z,38.50
2018-10-09T10:09:57.095Z,38.60
2018-10-09T10:12:25.218Z,38.60
2018-10-09T10:14:53.382Z,38.50
2018-10-09T10:17:21.523Z,38.50
2018-10-09T10:19:49.630Z,38.60
2018-10-09T10:22:17.766Z,38.70
2018-10-09T10:24:46.098Z,38.50
2018-10-09T10:27:14.197Z,38.60
2018-10-09T10:29:42.330Z,38.60
2018-10-09T10:32:10.473Z,38.50
2018-10-09T10:34:38.593Z,38.50
2018-10-09T10:37:06.867Z,38.50
2018-10-09T10:39:35.009Z,38.30
2018-10-09T10:42:03.213Z,38.60
2018-10-09T10:44:31.327Z,38.40
2018-10-09T10:46:59.425Z,38.40
2018-10-09T10:49:27.591Z,38.40
2018-10-09T10:51:55.656Z,38.40
2018-10-09T10:54:23.782Z,38.40
2018-10-09T10:56:51.932Z,38.30
2018-10-09T10:59:20.079Z,38.30
2018-10-09T11:01:48.236Z,38.30
2018-10-09T11:04:16.379Z,38.30
2018-10-09T11:06:44.492Z,38.10
2018-10-09T11:09:12.598Z,38.10
2018-10-09T11:11:40.706Z,38.10
2018-10-09T11:14:08.875Z,38.10
2018-10-09T11:16:36.977Z,38.00
2018-10-09T11:19:05.090Z,37.90
2018-10-09T11:21:33.259Z,37.90
2018-10-09T11:24:01.359Z,37.80
2018-10-09T11:26:29.633Z,37.80
2018-10-09T11:28:57.761Z,38.00
2018-10-09T11:31:25.938Z,38.20
2018-10-09T11:33:54.070Z,37.60
2018-10-09T11:36:22.213Z,37.60
2018-10-09T11:38:50.314Z,37.70
2018-10-09T11:41:18.462Z,37.60
2018-10-09T11:43:46.689Z,37.60
2018-10-09T11:46:14.821Z,37.50
2018-10-09T11:48:42.959Z,37.50
2018-10-09T11:51:11.135Z,37.30
2018-10-09T11:53:39.243Z,37.30
2018-10-09T11:56:07.375Z,37.20
2018-10-09T11:58:35.481Z,37.20
2018-10-09T12:01:06.022Z,37.10
2018-10-09T12:03:34.174Z,37.10
2018-10-09T12:06:02.342Z,37.70
2018-10-09T12:08:31.608Z,37.00
2018-10-09T12:10:59.723Z,37.10
2018-10-09T12:13:27.855Z,37.00
2018-10-09T12:15:56.012Z,37.00
2018-10-09T12:18:24.125Z,37.00
2018-10-09T12:20:52.265Z,36.90
2018-10-09T12:23:20.413Z,36.90
2018-10-09T12:25:48.538Z,36.80
2018-10-09T12:28:16.730Z,36.80
2018-10-09T12:30:44.968Z,36.70
2018-10-09T12:33:13.087Z,36.70
2018-10-09T12:35:41.234Z,36.60
2018-10-09T12:38:09.357Z,36.50
2018-10-09T12:40:37.518Z,36.50
2018-10-09T12:43:05.623Z,36.40
2018-10-09T12:45:33.750Z,36.40
2018-10-09T12:48:01.908Z,36.30
2018-10-09T12:50:30.018Z,36.30
2018-10-09T12:52:58.193Z,36.30
2018-10-09T12:55:26.337Z,36.30
2018-10-09T12:57:54.465Z,36.10
2018-10-09T13:00:22.601Z,36.10
2018-10-09T13:02:50.746Z,36.60
2018-10-09T13:05:18.862Z,35.40
2018-10-09T13:07:47.000Z,35.90
2018-10-09T13:10:15.117Z,35.90
2018-10-09T13:12:43.253Z,35.90
2018-10-09T13:15:11.495Z,35.80
2018-10-09T13:17:40.283Z,35.80
2018-10-09T13:20:08.533Z,35.80
2018-10-09T13:22:36.896Z,35.70
2018-10-09T13:25:04.910Z,35.80
2018-10-09T13:27:33.022Z,35.70
2018-10-09T13:30:01.134Z,35.70
2018-10-09T13:32:29.257Z,35.70
2018-10-09T13:34:57.725Z,35.60
2018-10-09T13:37:25.823Z,35.50
2018-10-09T13:39:54.080Z,35.50
2018-10-09T13:42:22.239Z,36.00
2018-10-09T13:44:50.379Z,35.60
2018-10-09T13:47:18.585Z,35.60
2018-10-09T13:49:46.711Z,35.50
2018-10-09T13:52:14.841Z,35.50
2018-10-09T13:54:43.030Z,35.40
2018-10-09T13:57:11.168Z,35.40
2018-10-09T13:59:39.310Z,35.30
2018-10-09T14:02:07.417Z,35.30
2018-10-09T14:04:35.645Z,35.40
2018-10-09T14:07:03.771Z,35.30
2018-10-09T14:09:31.905Z,35.90
2018-10-09T14:12:00.049Z,35.30
2018-10-09T14:14:28.169Z,35.30
2018-10-09T14:16:56.282Z,35.20
2018-10-09T14:19:24.395Z,35.20
2018-10-09T14:21:52.536Z,35.20
2018-10-09T14:24:20.773Z,35.20
2018-10-09T14:26:48.906Z,35.10
2018-10-09T14:29:17.112Z,35.00
2018-10-09T14:31:45.291Z,35.00
2018-10-09T14:34:13.477Z,35.00
2018-10-09T14:36:41.607Z,35.00
2018-10-09T14:39:09.865Z,34.90
2018-10-09T14:41:38.110Z,34.90
2018-10-09T14:44:06.360Z,34.90
2018-10-09T14:46:34.368Z,34.90
2018-10-09T14:49:02.553Z,34.80
2018-10-09T14:51:30.669Z,34.80
2018-10-09T14:53:58.806Z,34.70
2018-10-09T14:56:26.962Z,34.50
2018-10-09T14:58:55.070Z,34.40
2018-10-09T15:01:23.223Z,34.40
2018-10-09T15:03:51.318Z,34.70
2018-10-09T15:06:19.435Z,33.90
2018-10-09T15:08:47.614Z,33.60
2018-10-09T15:11:15.914Z,33.50
2018-10-09T15:13:44.089Z,33.30
2018-10-09T15:16:12.209Z,33.30
2018-10-09T15:18:40.315Z,33.30
2018-10-09T15:21:08.574Z,33.30
2018-10-09T15:23:36.916Z,33.40
2018-10-09T15:26:05.047Z,33.40
2018-10-09T15:28:33.173Z,33.40
2018-10-09T15:31:01.307Z,33.40
2018-10-09T15:33:29.419Z,33.50
2018-10-09T15:35:57.535Z,33.50
2018-10-09T15:38:25.722Z,33.50
2018-10-09T15:40:53.854Z,33.60
2018-10-09T15:43:22.935Z,33.60
2018-10-09T15:45:51.070Z,33.60
2018-10-09T15:48:19.198Z,33.70
2018-10-09T15:50:47.330Z,33.80
2018-10-09T15:53:15.465Z,33.80
2018-10-09T15:55:43.612Z,33.80
2018-10-09T15:58:11.839Z,33.90
2018-10-09T16:00:39.990Z,34.00
2018-10-09T16:03:08.726Z,34.00
2018-10-09T16:05:36.866Z,34.00
2018-10-09T16:08:05.058Z,34.10
2018-10-09T16:10:33.204Z,34.10
2018-10-09T16:13:01.633Z,34.20
2018-10-09T16:15:29.794Z,34.20
2018-10-09T16:17:58.016Z,34.20
2018-10-09T16:20:26.261Z,35.00
2018-10-09T16:22:54.378Z,35.00
2018-10-09T16:25:22.509Z,34.50
2018-10-09T16:27:50.649Z,34.50
2018-10-09T16:30:18.790Z,34.50
2018-10-09T16:32:47.314Z,34.60
2018-10-09T16:35:15.349Z,34.60
2018-10-09T16:37:43.611Z,34.70
2018-10-09T16:40:12.006Z,34.70
2018-10-09T16:42:40.258Z,34.80
2018-10-09T16:45:08.406Z,34.80
2018-10-09T16:47:36.522Z,34.90
2018-10-09T16:50:04.658Z,35.00
2018-10-09T16:52:32.770Z,35.00
2018-10-09T16:55:00.955Z,35.00
2018-10-09T16:57:29.198Z,35.10
2018-10-09T16:59:57.319Z,35.80
2018-10-09T17:02:25.415Z,35.10
2018-10-09T17:04:53.630Z,35.20
2018-10-09T17:07:21.858Z,35.30
2018-10-09T17:09:49.954Z,35.30
2018-10-09T17:12:18.054Z,35.30
2018-10-09T17:14:46.806Z,35.40
2018-10-09T17:17:14.943Z,35.40
2018-10-09T17:19:43.103Z,35.50
2018-10-09T17:22:11.352Z,35.50
2018-10-09T17:24:39.434Z,35.60
2018-10-09T17:27:07.535Z,35.60
2018-10-09T17:29:35.698Z,35.70
2018-10-09T17:32:03.811Z,35.70
2018-10-09T17:34:31.924Z,35.70
2018-10-09T17:37:00.019Z,35.80
2018-10-09T17:39:28.159Z,35.80
2018-10-09T17:41:56.254Z,35.80
2018-10-09T17:44:24.363Z,35.80
2018-10-09T17:46:52.560Z,35.90
2018-10-09T17:49:20.843Z,35.90
2018-10-09T17:51:48.976Z,35.90
2018-10-09T17:54:17.070Z,36.00
2018-10-09T17:56:45.275Z,36.00
2018-10-09T17:59:13.437Z,36.00
2018-10-09T18:01:41.573Z,36.10
2018-10-09T18:04:09.767Z,36.20
2018-10-09T18:06:37.873Z,36.20
2018-10-09T18:09:09.441Z,36.20
2018-10-09T18:11:37.625Z,36.30
2018-10-09T18:14:05.974Z,36.40
2018-10-09T18:16:34.234Z,36.40
2018-10-09T18:19:02.326Z,36.50
2018-10-09T18:21:30.562Z,36.50
2018-10-09T18:23:58.660Z,36.50
2018-10-09T18:26:26.758Z,36.60
2018-10-09T18:28:54.910Z,36.70
2018-10-09T18:31:23.013Z,36.60
2018-10-09T18:33:51.110Z,36.70
2018-10-09T18:36:19.258Z,36.80
2018-10-09T18:38:47.425Z,36.80
2018-10-09T18:41:15.561Z,36.80
2018-10-09T18:43:43.642Z,36.80
2018-10-09T18:46:11.764Z,36.80
2018-10-09T18:48:40.026Z,36.90
2018-10-09T18:51:08.156Z,36.80
2018-10-09T18:53:36.265Z,36.90
2018-10-09T18:56:04.359Z,36.90
2018-10-09T18:58:32.698Z,37.00
2018-10-09T19:01:00.831Z,37.00
2018-10-09T19:03:29.054Z,37.00
2018-10-09T19:05:57.162Z,37.10
2018-10-09T19:08:25.326Z,37.10
2018-10-09T19:10:53.548Z,37.10
2018-10-09T19:13:21.626Z,37.10
2018-10-09T19:15:49.764Z,37.10
2018-10-09T19:18:17.866Z,37.30
2018-10-09T19:20:45.987Z,37.20
2018-10-09T19:23:14.094Z,37.30
2018-10-09T19:25:42.322Z,37.30
2018-10-09T19:28:10.414Z,38.00
2018-10-09T19:30:38.526Z,37.30
2018-10-09T19:33:06.647Z,37.40
2018-10-09T19:35:35.268Z,37.40
2018-10-09T19:38:03.437Z,37.40
2018-10-09T19:40:31.683Z,38.00
2018-10-09T19:42:59.787Z,37.50
2018-10-09T19:45:27.950Z,37.50
2018-10-09T19:47:56.108Z,37.50
2018-10-09T19:50:24.210Z,37.50
2018-10-09T19:52:52.331Z,37.60
2018-10-09T19:55:20.454Z,37.60
2018-10-09T19:57:48.594Z,37.60
2018-10-09T20:00:16.785Z,37.60
2018-10-09T20:02:44.918Z,37.70
2018-10-09T20:05:13.054Z,37.70
2018-10-09T20:07:41.152Z,37.70
2018-10-09T20:10:09.266Z,37.80
2018-10-09T20:12:37.378Z,37.80
2018-10-09T20:15:05.495Z,37.80
2018-10-09T20:17:33.597Z,37.80
2018-10-09T20:20:01.746Z,37.80
2018-10-09T20:22:29.858Z,37.90
2018-10-09T20:24:57.967Z,38.00
2018-10-09T20:27:26.239Z,37.90
2018-10-09T20:29:54.343Z,37.90
2018-10-09T20:32:22.451Z,37.90
2018-10-09T20:34:50.567Z,38.00
2018-10-09T20:37:18.687Z,38.00
2018-10-09T20:39:46.806Z,38.00
2018-10-09T20:42:14.899Z,38.00
2018-10-09T20:44:43.091Z,38.00
2018-10-09T20:47:11.234Z,38.10
2018-10-09T20:49:39.336Z,38.10
2018-10-09T20:52:07.530Z,38.10
2018-10-09T20:54:35.662Z,38.20
2018-10-09T20:57:03.753Z,38.10
2018-10-09T20:59:31.900Z,38.20
2018-10-09T21:01:59.975Z,38.20
2018-10-09T21:04:28.107Z,38.20
2018-10-09T21:06:56.218Z,38.20
2018-10-09T21:09:24.319Z,38.20
2018-10-09T21:11:52.430Z,38.20
2018-10-09T21:14:20.558Z,38.30
2018-10-09T21:16:48.729Z,38.30
2018-10-09T21:19:16.842Z,38.30
2018-10-09T21:21:44.944Z,38.30
2018-10-09T21:24:13.054Z,38.30
2018-10-09T21:26:41.176Z,38.90
2018-10-09T21:29:09.262Z,38.30
2018-10-09T21:31:37.378Z,38.30
2018-10-09T21:34:05.518Z,38.40
2018-10-09T21:36:33.645Z,38.40
2018-10-09T21:39:01.834Z,38.40
2018-10-09T21:41:29.934Z,38.40
2018-10-09T21:43:58.037Z,38.50
2018-10-09T21:46:26.142Z,38.50
2018-10-09T21:48:54.258Z,38.50
2018-10-09T21:51:22.410Z,38.50
2018-10-09T21:53:50.582Z,38.50
2018-10-09T21:56:18.682Z,39.00
2018-10-09T21:58:46.774Z,38.60
2018-10-09T22:01:14.886Z,38.60
2018-10-09T22:03:42.982Z,39.20
2018-10-09T22:06:11.475Z,38.60
2018-10-09T22:08:39.572Z,38.60
2018-10-09T22:11:07.821Z,38.70
2018-10-09T22:13:36.006Z,38.70
2018-10-09T22:16:04.267Z,38.80
2018-10-09T22:18:32.414Z,38.80
2018-10-09T22:21:00.528Z,38.80
2018-10-09T22:23:28.650Z,38.80
2018-10-09T22:25:56.855Z,38.80
2018-10-09T22:28:24.987Z,38.80
2018-10-09T22:30:53.101Z,38.90
2018-10-09T22:33:21.226Z,38.90
2018-10-09T22:35:49.411Z,38.90
2018-10-09T22:38:17.592Z,38.90
2018-10-09T22:40:45.798Z,38.90
2018-10-09T22:43:13.901Z,38.90
2018-10-09T22:45:42.028Z,38.90
2018-10-09T22:48:10.194Z,38.90
2018-10-09T22:50:38.328Z,38.90
2018-10-09T22:53:06.570Z,39.00
2018-10-09T22:55:34.707Z,39.00
2018-10-09T22:58:02.806Z,39.00
2018-10-09T23:00:30.911Z,39.00
2018-10-09T23:02:59.065Z,39.00
2018-10-09T23:05:27.178Z,39.00
2018-10-09T23:07:55.269Z,39.00
2018-10-09T23:10:23.418Z,39.00
2018-10-09T23:12:51.569Z,39.60
2018-10-09T23:15:19.662Z,39.00
2018-10-09T23:17:47.766Z,39.10
2018-10-09T23:20:15.882Z,39.00
2018-10-09T23:22:43.975Z,39.00
2018-10-09T23:25:12.346Z,39.10
2018-10-09T23:27:40.534Z,39.10
2018-10-09T23:30:09.383Z,39.10
2018-10-09T23:32:37.491Z,39.10
2018-10-09T23:35:05.591Z,39.20
2018-10-09T23:37:33.710Z,39.20
2018-10-09T23:40:01.869Z,39.20
2018-10-09T23:42:30.194Z,39.20
2018-10-09T23:44:58.460Z,39.20
2018-10-09T23:47:26.566Z,39.20
2018-10-09T23:49:54.666Z,39.20
2018-10-09T23:52:22.774Z,39.20
2018-10-09T23:54:50.893Z,39.30
2018-10-09T23:57:19.045Z,39.20
2018-10-09T23:59:47.117Z,39.30
